Orange Beach, AL (36561)

10:01 AM CDT on July 23, 2016 (GMT -0500)
Republic of Brentorious | | Change Station

Elev 23 ft 30.28 °N, 87.56 °W | Updated 8 seconds ago

Clear
Clear
85.5 °F
Feels Like 98 °F
N
0.0
Wind Variable Wind from ESE
Gusts 4.0 mph

Today
High -- | Low -- °F
--% Chance of Precip.
Yesterday
High -- | Low -- °F
Precip. -- in
Pressure 30.02 in
Visibility 10.0 miles
Clouds Clear
Heat Index 98 °F
Dew Point 78 °F
Humidity 79%
Rainfall 0.00 in
Snow Depth Not available.
6:03 AM 7:49 PM
Waning Gibbous, 84% visible
METAR KJKA 231455Z AUTO 00000KT 10SM CLR 29/24 A3002 RMK AO2 T02920244
Pressure 30.02 in
Visibility 10.0 miles
Clouds Clear
Heat Index 98 °F
Dew Point 78 °F
Humidity 79%
Rainfall 0.00 in
Snow Depth Not available.
6:03 AM 7:49 PM
Waning Gibbous, 84% visible
METAR KJKA 231455Z AUTO 00000KT 10SM CLR 29/24 A3002 RMK AO2 T02920244

10-Day Weather Forecast

Almanac

Astronomy

Jul. 23, 2016 Rise Set
Actual Time
Civil Twilight
Nautical Twilight
Astronomical Twilight
Moon
Length of Visible Light
Length of Day
Tomorrow will be .
, % of the Moon is Illuminated

Today's Extremes

State Highs State Lows

Community

WunderPhotos

Upload Photos

1,926,833 photos uploaded!

WunderBlog® & News

Nearby

Air Quality

  Air Quality AQ Index Pollutant
Not available.

Snow Depth

Station Depth Elevation

Earthquake Activity

City Distance Mag. Time & Date
Minimum magnitude displayed is 2.5.

Coastal Water Temperatures

Place Temperature

Stations

Nearby Weather Stations

Station Location Temp. Windchill Dew Point Humidity Wind Precip. Elev Updated Type
                   

Watches & Warnings

There are currently no watches in effect.